Main page
METAR-TAF:

METAR-TAF

Airports :

Maharana Pratap Airport

Udaipur, India

latitude: 24-37-04N, longitude: 73-53-46E, elevation: 513 m

Current weather observation

The report was made 19 minutes ago, at 05:00 UTC
Wind 3 kt from the North
Temperature 31°C
Humidity 31%
Pressure 1012 hPa
Visibility: 6000 m
Few clouds at a height of 3500 ft

METAR: VAUD 200500Z 35003KT 6000 FEW035 31/12 Q1012 NOSIG

Time: 10:49 (05:19 UTC)

Forecast

The report was made 3 hours and 19 minutes ago, at 02:00 UTC
Forecast valid from 20 at 03 UTC to 20 at 12 UTC
Wind 3 kt from variable directions
Visibility: 4000 m
haze
Becoming
from 20 at 04 UTC to 20 at 06 UTC
Wind 5 kt from the Northeast
Visibility: 5000 m
Few clouds at a height of 3500 ft
haze

TAF: VAUD 200200Z 2003/2012 VRB03KT 4000 HZ NSC BECMG 2004/2006 05005KT 5000 HZ FEW035

Weather observations and forecasts of more than 4000 airports (METAR and TAF reports).

The available stations are represented by yellow and red dots on the map.

Hover mouse over dot to see the name of the station.

Then click to see weather observations and forecasts.

To change the map : click on the green buttons with a black cross to zoom in, on the green button with a dash to zoom out, or on the green arrows for adjacent maps.


METAR-TAF: